Time,TemperatureF,DewpointF,PressureIn,WindDirection,WindDirectionDegrees,WindSpeedMPH,WindSpeedGustMPH,Humidity,HourlyPrecipIn,Conditions,Clouds,dailyrainin,SolarRadiationWatts/m^2,SoftwareType,DateUTC
2013-02-07 00:30:00,39.0,37.7,30.24,ESE,105,0.0,0.0,95,0.00,,,0.00,0,Wunderground v.1.15,2013-02-07 05:30:00,
2013-02-07 01:00:00,37.7,36.4,30.22,ESE,105,0.0,0.0,95,0.00,,,0.00,0,Wunderground v.1.15,2013-02-07 06:00:00,
2013-02-07 01:30:00,37.7,36.4,30.20,ESE,105,0.0,0.0,95,0.00,,,0.00,0,Wunderground v.1.15,2013-02-07 06:30:00,
2013-02-07 02:00:00,38.6,37.3,30.21,ESE,105,0.0,0.0,95,0.00,,,0.00,0,Wunderground v.1.15,2013-02-07 07:00:00,
2013-02-07 02:30:00,37.8,36.5,30.21,ESE,105,0.0,0.0,95,0.00,,,0.00,0,Wunderground v.1.15,2013-02-07 07:30:00,
2013-02-07 03:00:00,37.7,36.4,30.21,ESE,105,0.0,0.0,95,0.00,,,0.00,0,Wunderground v.1.15,2013-02-07 08:00:00,
2013-02-07 03:30:00,37.1,35.8,30.20,ESE,105,0.0,0.0,95,0.00,,,0.00,0,Wunderground v.1.15,2013-02-07 08:30:00,
2013-02-07 04:00:00,37.5,36.2,30.20,ESE,105,0.0,0.0,95,0.00,,,0.00,0,Wunderground v.1.15,2013-02-07 09:00:00,
2013-02-07 04:30:00,38.3,37.0,30.21,ESE,105,0.0,0.0,95,0.00,,,0.00,0,Wunderground v.1.15,2013-02-07 09:30:00,
2013-02-07 05:00:00,37.9,36.9,30.21,ESE,105,0.0,0.0,96,0.00,,,0.00,0,Wunderground v.1.15,2013-02-07 10:00:00,
2013-02-07 05:30:00,38.6,37.6,30.21,SE,142,0.0,0.0,96,0.00,,,0.00,0,Wunderground v.1.15,2013-02-07 10:30:00,
2013-02-07 06:00:00,39.1,38.1,30.22,SE,136,0.0,0.0,96,0.00,,,0.00,0,Wunderground v.1.15,2013-02-07 11:00:00,
2013-02-07 06:30:00,39.6,38.6,30.23,SE,127,0.0,0.0,96,0.00,,,0.00,0,Wunderground v.1.15,2013-02-07 11:30:00,
2013-02-07 07:00:00,38.6,37.6,30.23,SE,127,0.0,0.0,96,0.00,,,0.00,5,Wunderground v.1.15,2013-02-07 12:00:00,
2013-02-07 07:30:00,39.4,38.4,30.22,SE,138,0.0,0.0,96,0.00,,,0.00,28,Wunderground v.1.15,2013-02-07 12:30:00,
2013-02-07 08:00:00,42.9,41.8,30.22,SSW,201,1.0,1.0,96,0.00,,,0.00,111,Wunderground v.1.15,2013-02-07 13:00:00,
2013-02-07 08:30:00,45.5,44.4,30.23,SSE,151,0.0,0.0,96,0.00,,,0.00,165,Wunderground v.1.15,2013-02-07 13:30:00,
2013-02-07 09:00:00,47.4,45.8,30.23,ESE,110,0.0,0.0,94,0.00,,,0.00,197,Wunderground v.1.15,2013-02-07 14:00:00,
2013-02-07 09:30:00,49.8,47.0,30.24,SSE,163,1.0,3.0,90,0.00,,,0.00,262,Wunderground v.1.15,2013-02-07 14:30:00,
2013-02-07 10:00:00,51.3,47.3,30.23,SE,144,0.0,0.0,86,0.00,,,0.00,257,Wunderground v.1.15,2013-02-07 15:00:00,
2013-02-07 10:30:00,53.3,47.6,30.22,South,181,1.0,1.0,81,0.00,,,0.00,200,Wunderground v.1.15,2013-02-07 15:30:00,
2013-02-07 11:00:00,55.6,49.2,30.21,SE,145,0.0,2.0,79,0.00,,,0.00,371,Wunderground v.1.15,2013-02-07 16:00:00,
2013-02-07 11:30:00,57.7,49.8,30.18,SE,137,1.0,1.0,75,0.00,,,0.00,316,Wunderground v.1.15,2013-02-07 16:30:00,
2013-02-07 12:00:00,60.2,50.8,30.17,SE,143,1.0,2.0,71,0.00,,,0.00,462,Wunderground v.1.15,2013-02-07 17:00:00,
2013-02-07 12:30:00,61.0,51.5,30.16,South,181,0.0,1.0,71,0.00,,,0.00,288,Wunderground v.1.15,2013-02-07 17:30:00,
2013-02-07 13:00:00,61.3,51.8,30.15,SSE,150,1.0,1.0,71,0.00,,,0.00,186,Wunderground v.1.15,2013-02-07 18:00:00,
2013-02-07 13:30:00,60.7,51.2,30.14,SSE,157,2.0,2.0,71,0.00,,,0.00,90,Wunderground v.1.15,2013-02-07 18:30:00,
2013-02-07 14:00:00,59.5,52.6,30.12,South,176,0.0,0.0,78,0.00,,,0.00,42,Wunderground v.1.15,2013-02-07 19:00:00,
2013-02-07 14:30:00,56.4,53.2,30.11,SSW,205,0.0,2.0,89,0.13,,,0.05,40,Wunderground v.1.15,2013-02-07 19:30:00,
2013-02-07 15:00:00,54.9,52.6,30.09,SE,141,1.0,1.0,92,0.07,,,0.08,46,Wunderground v.1.15,2013-02-07 20:00:00,
2013-02-07 15:30:00,53.8,51.8,30.07,SSE,162,1.0,2.0,93,0.08,,,0.12,33,Wunderground v.1.15,2013-02-07 20:30:00,
2013-02-07 16:00:00,53.5,51.8,30.07,SSE,159,1.0,2.0,94,0.10,,,0.15,14,Wunderground v.1.15,2013-02-07 21:00:00,
2013-02-07 16:30:00,53.3,51.6,30.06,SSE,148,2.0,2.0,94,0.16,,,0.23,11,Wunderground v.1.15,2013-02-07 21:30:00,
2013-02-07 17:00:00,53.2,51.8,30.06,SE,142,2.0,4.0,95,0.13,,,0.29,7,Wunderground v.1.15,2013-02-07 22:00:00,
2013-02-07 17:30:00,52.9,51.5,30.05,ENE,67,1.0,2.0,95,0.25,,,0.38,0,Wunderground v.1.15,2013-02-07 22:30:00,
2013-02-07 18:00:00,52.5,51.1,30.04,SSE,159,2.0,2.0,95,0.17,,,0.50,0,Wunderground v.1.15,2013-02-07 23:00:00,
2013-02-07 18:30:00,52.2,50.8,30.01,SSE,158,3.0,3.0,95,0.13,,,0.56,0,Wunderground v.1.15,2013-02-07 23:30:00,
2013-02-07 19:00:00,52.1,50.7,30.00,NW,304,2.0,2.0,95,0.14,,,0.63,0,Wunderground v.1.15,2013-02-08 00:00:00,
2013-02-07 19:30:00,52.1,50.7,30.00,SE,134,2.0,2.0,95,0.18,,,0.69,0,Wunderground v.1.15,2013-02-08 00:30:00,
2013-02-07 20:00:00,51.8,50.4,29.97,SSE,157,2.0,2.0,95,0.07,,,0.73,0,Wunderground v.1.15,2013-02-08 01:00:00,
2013-02-07 20:30:00,51.9,50.5,29.96,SSE,164,3.0,3.0,95,0.10,,,0.81,0,Wunderground v.1.15,2013-02-08 01:30:00,
2013-02-07 21:00:00,51.9,50.5,29.95,SSE,167,2.0,5.0,95,0.13,,,0.86,0,Wunderground v.1.15,2013-02-08 02:00:00,
2013-02-07 21:30:00,52.0,50.6,29.94,South,170,2.0,3.0,95,0.14,,,0.91,0,Wunderground v.1.15,2013-02-08 02:30:00,
2013-02-07 22:00:00,52.1,50.7,29.92,SSW,195,2.0,2.0,95,0.11,,,0.99,0,Wunderground v.1.15,2013-02-08 03:00:00,
2013-02-07 22:30:00,52.1,50.7,29.88,ESE,121,1.0,1.0,95,0.05,,,1.01,0,Wunderground v.1.15,2013-02-08 03:30:00,
2013-02-07 23:00:00,52.4,51.0,29.85,SSE,161,2.0,3.0,95,0.04,,,1.03,0,Wunderground v.1.15,2013-02-08 04:00:00,
2013-02-07 23:30:00,53.0,51.9,29.81,SE,138,2.0,2.0,96,0.00,,,1.04,0,Wunderground v.1.15,2013-02-08 04:30:00,